Time;durP1;ratioP1;P1;durP2;ratioP2;P2;SDS_P1;SDS_P2;PMS_P1;PMS_P2;Temp;Humidity;BMP_temperature;BMP_pressure;BME280_temperature;BME280_humidity;BME280_pressure;Samples;Min_cycle;Max_cycle;Signal;HPM_P1;HPM_P2
2023/08/19 00:00:15;;;;;;;5.50;3.38;;;;;;;24.09;42.59;95082.31;5008188;28;20476;-84
2023/08/19 00:02:44;;;;;;;9.68;3.45;;;;;;;23.91;42.97;95080.91;5007101;28;20054;-82
2023/08/19 00:05:10;;;;;;;4.85;3.38;;;;;;;23.85;43.33;95086.56;5006290;28;20033;-81
2023/08/19 00:07:36;;;;;;;5.40;3.25;;;;;;;23.84;43.18;95085.03;4990080;28;20133;-82
2023/08/19 00:10:03;;;;;;;8.63;3.38;;;;;;;23.75;43.54;95084.59;4989295;28;20121;-82
2023/08/19 00:12:28;;;;;;;6.85;3.63;;;;;;;23.74;43.60;95081.03;5008290;28;20084;-83
2023/08/19 00:14:57;;;;;;;4.32;3.20;;;;;;;23.77;43.89;95087.66;4989420;28;20109;-83
2023/08/19 00:17:23;;;;;;;6.80;3.95;;;;;;;23.73;44.11;95085.09;5008537;28;20026;-82
2023/08/19 00:19:49;;;;;;;5.03;3.33;;;;;;;23.75;44.22;95087.41;5006720;28;20036;-82
2023/08/19 00:22:14;;;;;;;7.22;3.30;;;;;;;23.73;44.12;95085.09;4989994;28;20044;-83
2023/08/19 00:24:40;;;;;;;6.28;3.67;;;;;;;23.67;44.16;95072.41;5007562;28;20133;-82
2023/08/19 00:27:05;;;;;;;7.38;3.50;;;;;;;23.56;44.52;95076.00;4990868;28;20033;-84
2023/08/19 00:29:31;;;;;;;5.07;3.00;;;;;;;23.46;44.68;95069.97;5008884;28;20084;-84
2023/08/19 00:31:56;;;;;;;4.93;3.40;;;;;;;23.37;44.71;95047.06;5007226;28;20025;-82
2023/08/19 00:34:21;;;;;;;5.57;3.53;;;;;;;23.34;45.08;95048.88;5007878;28;20034;-84
2023/08/19 00:36:48;;;;;;;4.95;3.28;;;;;;;23.27;44.94;95047.34;5006885;28;20033;-82
2023/08/19 00:39:13;;;;;;;5.47;3.47;;;;;;;23.15;45.20;95033.91;5007793;28;20081;-83
2023/08/19 00:41:38;;;;;;;5.55;3.25;;;;;;;23.14;45.39;95049.22;5006633;28;20022;-82
2023/08/19 00:44:04;;;;;;;5.80;3.30;;;;;;;23.05;45.59;95055.88;5008464;28;20079;-83
2023/08/19 00:46:30;;;;;;;6.10;3.63;;;;;;;22.99;45.74;95055.91;5007390;28;20018;-82
2023/08/19 00:48:57;;;;;;;5.22;3.10;;;;;;;23.01;45.59;95052.59;5006840;28;20399;-83
2023/08/19 00:51:22;;;;;;;5.88;3.35;;;;;;;23.03;45.56;95050.78;4989563;28;20026;-83
2023/08/19 00:53:48;;;;;;;7.00;3.88;;;;;;;23.12;45.48;95055.34;5006486;28;20543;-82
2023/08/19 00:56:14;;;;;;;6.13;3.08;;;;;;;23.10;45.54;95052.28;4989825;28;20033;-83
2023/08/19 00:58:40;;;;;;;6.07;3.33;;;;;;;23.14;45.25;95057.63;5005950;28;20415;-84
2023/08/19 01:01:05;;;;;;;4.53;2.97;;;;;;;23.15;45.30;95061.97;4989325;28;20030;-84
2023/08/19 01:03:30;;;;;;;6.43;3.70;;;;;;;23.23;45.29;95057.34;4988732;28;20046;-83
2023/08/19 01:05:59;;;;;;;7.53;3.40;;;;;;;23.24;44.97;95058.88;5007026;28;20029;-83
2023/08/19 01:08:32;;;;;;;6.80;3.22;;;;;;;23.23;45.11;95062.94;5006997;28;20496;-83
2023/08/19 01:11:23;;;;;;;5.80;3.95;;;;;;;23.25;45.23;95068.78;4988575;28;20040;-82
2023/08/19 01:13:57;;;;;;;4.95;3.17;;;;;;;23.25;44.95;95068.78;4989970;28;20041;-82
2023/08/19 01:16:24;;;;;;;6.72;3.65;;;;;;;23.21;45.11;95068.28;4988526;28;20054;-84
2023/08/19 01:18:51;;;;;;;5.38;3.83;;;;;;;23.16;45.10;95071.88;4994198;28;20029;-84
2023/08/19 01:21:16;;;;;;;6.70;3.20;;;;;;;23.11;45.19;95065.03;4994398;28;20109;-84
2023/08/19 01:23:43;;;;;;;5.60;3.30;;;;;;;23.09;45.41;95064.78;5008689;28;20053;-83
2023/08/19 01:26:09;;;;;;;8.35;3.45;;;;;;;23.02;45.17;95059.72;4989848;28;20109;-83
2023/08/19 01:28:35;;;;;;;4.93;3.58;;;;;;;22.97;45.53;95068.91;5009108;28;20456;-85
2023/08/19 01:31:00;;;;;;;7.15;3.72;;;;;;;22.87;45.93;95053.63;5001143;28;20420;-84
2023/08/19 01:33:25;;;;;;;5.50;3.70;;;;;;;22.87;45.88;95057.22;4989566;28;20113;-83
2023/08/19 01:36:15;;;;;;;5.88;2.80;;;;;;;22.83;45.83;95053.91;4989472;28;20045;-82
2023/08/19 01:38:51;;;;;;;7.05;3.80;;;;;;;22.79;45.98;95047.81;5006862;28;20114;-81
2023/08/19 01:41:19;;;;;;;9.40;3.80;;;;;;;22.69;46.25;95038.91;4988010;28;20472;-83
2023/08/19 01:43:45;;;;;;;5.53;3.45;;;;;;;22.65;46.18;95040.44;4989701;28;20107;-83
2023/08/19 01:46:10;;;;;;;6.38;3.60;;;;;;;22.59;46.42;95036.91;4988248;28;20065;-83
2023/08/19 01:48:35;;;;;;;6.85;3.35;;;;;;;22.57;46.54;95031.84;4989259;28;20108;-82
2023/08/19 01:51:01;;;;;;;6.70;3.40;;;;;;;22.62;46.65;95035.91;5006484;28;20014;-82
2023/08/19 01:53:26;;;;;;;6.20;3.20;;;;;;;22.57;46.51;95033.88;5006321;28;20476;-82
2023/08/19 01:55:52;;;;;;;6.00;3.33;;;;;;;22.55;46.60;95040.00;5006894;28;20030;-82
2023/08/19 01:58:17;;;;;;;5.85;3.85;;;;;;;22.61;46.86;95039.97;5006267;28;20100;-81
2023/08/19 02:00:42;;;;;;;5.85;3.58;;;;;;;22.60;46.77;95044.81;4989167;28;20084;-82
2023/08/19 02:03:08;;;;;;;6.72;3.83;;;;;;;22.61;46.31;95046.34;4988198;28;20133;-82
2023/08/19 02:05:33;;;;;;;7.68;4.00;;;;;;;22.58;46.66;95052.19;5007917;28;20084;-83
2023/08/19 02:07:58;;;;;;;7.85;4.10;;;;;;;22.63;46.57;95048.63;5005961;28;20484;-82
2023/08/19 02:10:24;;;;;;;5.70;3.65;;;;;;;22.47;46.84;95048.16;5006680;28;20112;-83
2023/08/19 02:12:49;;;;;;;5.95;3.65;;;;;;;22.47;46.67;95042.53;5004793;28;20396;-82
2023/08/19 02:15:15;;;;;;;6.03;3.65;;;;;;;22.52;46.49;95043.81;5006182;28;20057;-82
2023/08/19 02:17:40;;;;;;;6.75;4.13;;;;;;;22.49;46.45;95045.63;5006186;28;20026;-83
2023/08/19 02:20:06;;;;;;;6.32;3.63;;;;;;;22.45;46.69;95045.09;5006342;28;20033;-82
2023/08/19 02:22:33;;;;;;;7.72;3.63;;;;;;;22.53;46.77;95054.50;5006810;28;20042;-82
2023/08/19 02:24:58;;;;;;;6.65;3.90;;;;;;;22.42;46.97;95045.34;5005876;28;20080;-82
2023/08/19 02:27:24;;;;;;;5.60;3.75;;;;;;;22.42;46.89;95042.56;5006594;28;20018;-83
2023/08/19 02:29:49;;;;;;;6.22;3.90;;;;;;;22.40;46.95;95048.69;5005491;28;20636;-82
2023/08/19 02:32:15;;;;;;;7.60;4.43;;;;;;;22.47;46.80;95058.59;5006467;28;20038;-83
2023/08/19 02:34:40;;;;;;;5.57;3.80;;;;;;;22.45;46.99;95047.16;4988205;28;20026;-82
2023/08/19 02:37:06;;;;;;;5.10;4.07;;;;;;;22.35;47.17;95048.69;5008629;28;20104;-83
2023/08/19 02:39:31;;;;;;;6.85;3.47;;;;;;;22.31;47.15;95057.38;5008282;28;20462;-85
2023/08/19 02:41:56;;;;;;;7.18;3.53;;;;;;;22.26;47.07;95036.50;5008959;28;20030;-83
2023/08/19 02:44:22;;;;;;;8.45;3.78;;;;;;;22.22;47.40;95058.38;5008449;28;20105;-83
2023/08/19 02:46:47;;;;;;;7.90;3.88;;;;;;;22.16;47.47;95063.22;5008134;28;20030;-82
2023/08/19 02:49:13;;;;;;;5.50;3.72;;;;;;;22.07;48.00;95059.88;5009760;28;20108;-81
2023/08/19 02:51:38;;;;;;;5.43;4.03;;;;;;;22.06;47.95;95061.91;5008136;28;20459;-82
2023/08/19 02:54:04;;;;;;;5.53;3.67;;;;;;;22.03;47.98;95059.41;5008018;28;20101;-83
2023/08/19 02:56:29;;;;;;;4.75;3.45;;;;;;;21.99;47.85;95060.41;5008958;28;20487;-83
2023/08/19 02:58:55;;;;;;;8.52;4.20;;;;;;;22.00;48.03;95058.38;5008985;28;20101;-83
2023/08/19 03:01:20;;;;;;;5.22;3.63;;;;;;;21.93;48.10;95051.25;5009495;28;20570;-83
2023/08/19 03:03:45;;;;;;;15.30;4.45;;;;;;;21.84;48.04;95054.28;5007793;28;20109;-84
2023/08/19 03:06:11;;;;;;;7.78;4.43;;;;;;;21.89;48.17;95067.53;4991472;28;20503;-84
2023/08/19 03:08:36;;;;;;;4.78;4.10;;;;;;;21.89;48.14;95061.91;5008052;28;20029;-82
2023/08/19 03:11:02;;;;;;;4.55;3.60;;;;;;;21.82;48.25;95065.25;4991658;28;20107;-83
2023/08/19 03:13:28;;;;;;;7.13;4.18;;;;;;;21.76;48.37;95060.91;5008579;28;20017;-82
2023/08/19 03:15:58;;;;;;;6.13;4.22;;;;;;;21.80;48.66;95064.22;5008268;28;20450;-82
2023/08/19 03:18:23;;;;;;;7.80;4.57;;;;;;;21.68;48.63;95063.47;4991196;28;20022;-83
2023/08/19 03:20:55;;;;;;;5.90;4.20;;;;;;;21.64;48.51;95055.31;5008040;28;20410;-82
2023/08/19 03:23:20;;;;;;;7.25;4.28;;;;;;;21.61;48.70;95061.13;5008903;28;20428;-82
2023/08/19 03:25:49;;;;;;;6.03;3.97;;;;;;;21.57;48.53;95058.59;5007908;28;20053;-83
2023/08/19 03:28:15;;;;;;;5.07;3.60;;;;;;;21.49;48.87;95054.75;4991362;28;20121;-82
2023/08/19 03:30:40;;;;;;;5.60;3.63;;;;;;;21.41;48.72;95053.75;5016609;28;20121;-83
2023/08/19 03:33:05;;;;;;;5.38;3.88;;;;;;;21.42;48.91;95060.88;5013700;28;20496;-82
2023/08/19 03:35:33;;;;;;;7.35;3.90;;;;;;;21.44;48.70;95058.31;5009203;28;20029;-82
2023/08/19 03:37:59;;;;;;;6.07;4.63;;;;;;;21.39;48.61;95059.06;5007979;28;20038;-82
2023/08/19 03:40:24;;;;;;;6.55;3.97;;;;;;;21.32;49.06;95054.72;5008548;28;20156;-82
2023/08/19 03:42:50;;;;;;;5.43;4.10;;;;;;;21.41;48.52;95048.91;5009270;28;20488;-82
2023/08/19 03:45:16;;;;;;;5.00;4.15;;;;;;;21.40;48.60;95055.03;5010445;28;20029;-83
2023/08/19 03:47:41;;;;;;;6.20;4.28;;;;;;;21.35;48.91;95062.13;5010490;28;20512;-83
2023/08/19 03:50:07;;;;;;;9.32;4.18;;;;;;;21.27;48.74;95057.47;5019924;28;20014;-84
2023/08/19 03:52:32;;;;;;;6.50;4.18;;;;;;;21.20;48.90;95056.72;5023025;28;20326;-82
2023/08/19 03:54:58;;;;;;;8.07;3.95;;;;;;;21.26;48.95;95056.72;5026856;28;20033;-82
2023/08/19 03:57:23;;;;;;;6.05;4.20;;;;;;;21.31;48.85;95066.44;5016363;28;20053;-83
2023/08/19 03:59:50;;;;;;;6.05;4.15;;;;;;;21.31;48.96;95070.00;5010852;28;20033;-84
2023/08/19 04:02:15;;;;;;;6.72;4.30;;;;;;;21.34;48.86;95071.03;5010176;28;20041;-82
2023/08/19 04:04:56;;;;;;;7.18;3.88;;;;;;;21.35;48.88;95066.97;5007107;28;20037;-83
2023/08/19 04:07:21;;;;;;;6.45;4.03;;;;;;;21.43;48.61;95067.97;5008680;28;20476;-84
2023/08/19 04:09:47;;;;;;;7.40;4.32;;;;;;;21.46;48.79;95064.19;5007178;28;20080;-82
2023/08/19 04:12:12;;;;;;;8.60;4.40;;;;;;;21.50;48.71;95078.66;4990368;28;20577;-82
2023/08/19 04:14:38;;;;;;;5.75;4.10;;;;;;;21.53;48.84;95076.91;5008022;28;20018;-82
2023/08/19 04:17:03;;;;;;;6.03;4.00;;;;;;;21.60;48.60;95085.56;5006832;28;20114;-82
2023/08/19 04:19:28;;;;;;;6.63;4.28;;;;;;;21.63;48.81;95081.00;5008222;28;20029;-82
2023/08/19 04:21:54;;;;;;;6.00;4.50;;;;;;;21.64;48.15;95072.09;5007059;28;20018;-82
2023/08/19 04:24:19;;;;;;;6.03;3.70;;;;;;;21.69;48.19;95076.94;5008315;28;20448;-82
2023/08/19 04:26:44;;;;;;;7.85;4.22;;;;;;;21.70;48.19;95077.69;5006722;28;20030;-83
2023/08/19 04:29:10;;;;;;;7.53;4.28;;;;;;;21.76;48.07;95078.47;5007387;28;20030;-82
2023/08/19 04:31:35;;;;;;;7.13;4.07;;;;;;;21.78;47.69;95080.75;5006912;28;20406;-83
2023/08/19 04:34:01;;;;;;;5.30;4.07;;;;;;;21.79;47.98;95080.22;5006854;28;20075;-82
2023/08/19 04:36:26;;;;;;;6.65;4.00;;;;;;;21.84;47.94;95093.47;5007424;28;20018;-83
2023/08/19 04:38:51;;;;;;;6.55;4.03;;;;;;;21.92;47.60;95083.31;5006254;28;20045;-82
2023/08/19 04:41:17;;;;;;;8.05;4.35;;;;;;;21.93;47.31;95087.63;5007397;28;20029;-84
2023/08/19 04:43:42;;;;;;;6.50;4.13;;;;;;;21.91;47.91;95092.22;4987949;28;20037;-82
2023/08/19 04:46:07;;;;;;;5.85;4.10;;;;;;;21.95;47.69;95087.88;5007215;28;20034;-83
2023/08/19 04:48:33;;;;;;;6.93;4.35;;;;;;;21.96;47.59;95097.03;5006152;28;20036;-82
2023/08/19 04:51:00;;;;;;;7.22;4.25;;;;;;;21.92;47.87;95094.50;5006935;28;20042;-83
2023/08/19 04:53:25;;;;;;;5.47;4.07;;;;;;;21.96;47.83;95105.44;5006697;28;20030;-85
2023/08/19 04:55:58;;;;;;;7.22;3.90;;;;;;;21.97;47.53;95107.75;5006845;28;20032;-84
2023/08/19 04:58:23;;;;;;;6.63;4.20;;;;;;;21.99;47.70;95093.22;5006884;28;20449;-83
2023/08/19 05:00:49;;;;;;;6.15;4.28;;;;;;;21.97;47.06;95099.34;5005918;28;20045;-83
2023/08/19 05:03:15;;;;;;;8.20;4.28;;;;;;;21.99;47.34;95116.38;5006856;28;20042;-84
2023/08/19 05:05:41;;;;;;;6.53;4.22;;;;;;;22.01;47.09;95108.22;4988341;28;20123;-83
2023/08/19 05:08:06;;;;;;;5.72;4.13;;;;;;;22.02;47.23;95103.41;4989415;28;20428;-83
2023/08/19 05:10:31;;;;;;;7.00;3.72;;;;;;;22.09;47.27;95107.75;5006450;28;20038;-83
2023/08/19 05:12:58;;;;;;;5.22;3.95;;;;;;;22.15;47.47;95119.72;5006224;28;20034;-84
2023/08/19 05:15:23;;;;;;;5.97;4.35;;;;;;;22.17;47.02;95112.34;5006329;28;20110;-83
2023/08/19 05:17:49;;;;;;;7.15;4.43;;;;;;;22.18;47.51;95115.91;5005579;28;20128;-82
2023/08/19 05:20:14;;;;;;;5.88;4.20;;;;;;;22.21;47.04;95115.66;5007838;28;20030;-82
2023/08/19 05:22:39;;;;;;;7.50;4.13;;;;;;;22.32;47.17;95112.09;5006646;28;20100;-84
2023/08/19 05:25:05;;;;;;;6.32;4.40;;;;;;;22.31;47.17;95118.19;4994670;28;20085;-83
2023/08/19 05:27:31;;;;;;;7.75;4.28;;;;;;;22.41;47.12;95117.41;5011145;28;20030;-82
2023/08/19 05:29:56;;;;;;;5.88;4.10;;;;;;;22.31;46.80;95118.97;5006941;28;20093;-83
2023/08/19 05:32:22;;;;;;;5.88;3.95;;;;;;;22.32;46.67;95112.09;5013818;28;20056;-82
2023/08/19 05:34:47;;;;;;;5.82;4.35;;;;;;;22.35;46.78;95116.66;5010494;28;20033;-83
2023/08/19 05:37:13;;;;;;;7.07;4.20;;;;;;;22.33;46.89;95102.41;5009926;28;20392;-82
2023/08/19 05:39:38;;;;;;;5.80;4.03;;;;;;;22.32;47.04;95103.69;5006630;28;20469;-83
2023/08/19 05:42:04;;;;;;;5.45;4.18;;;;;;;22.39;47.64;95111.56;5007063;28;20021;-83
2023/08/19 05:44:29;;;;;;;6.68;4.30;;;;;;;22.42;47.03;95098.56;5005871;28;20029;-82
2023/08/19 05:46:55;;;;;;;6.57;4.15;;;;;;;22.51;47.24;95096.28;5004193;28;20032;-82
2023/08/19 05:49:20;;;;;;;6.85;3.70;;;;;;;22.59;46.54;95092.94;4985524;28;20034;-83
2023/08/19 05:51:45;;;;;;;6.40;4.35;;;;;;;22.58;46.32;95097.78;5006332;28;20064;-83
2023/08/19 05:54:11;;;;;;;5.05;3.95;;;;;;;22.69;46.42;95103.38;4988561;28;20467;-83
2023/08/19 05:56:36;;;;;;;4.50;3.63;;;;;;;22.71;45.92;95100.03;5005262;28;20027;-83
2023/08/19 05:59:02;;;;;;;4.43;3.78;;;;;;;22.73;46.44;95094.72;4988802;28;20045;-83
2023/08/19 06:01:28;;;;;;;7.30;4.03;;;;;;;22.88;46.02;95100.03;4986094;28;20104;-83
2023/08/19 06:03:53;;;;;;;9.40;3.72;;;;;;;22.84;45.97;95097.47;4985351;28;20136;-82
2023/08/19 06:06:19;;;;;;;8.35;4.15;;;;;;;22.94;45.95;95103.56;5003130;28;20096;-83
2023/08/19 06:08:44;;;;;;;8.40;3.90;;;;;;;22.97;45.91;95105.34;5003939;28;20029;-84
2023/08/19 06:11:09;;;;;;;4.85;3.50;;;;;;;22.98;45.42;95106.88;5004898;28;20034;-82
2023/08/19 06:13:36;;;;;;;4.90;3.80;;;;;;;22.94;45.12;95107.16;4992069;28;20076;-82
2023/08/19 06:16:03;;;;;;;6.68;3.95;;;;;;;23.01;45.30;95119.88;4992014;28;20560;-83
2023/08/19 06:18:28;;;;;;;4.72;3.28;;;;;;;23.12;45.31;95116.28;4991747;28;20103;-83
2023/08/19 06:20:55;;;;;;;8.25;4.15;;;;;;;23.14;45.36;95117.28;5010106;28;20473;-82
2023/08/19 06:23:20;;;;;;;4.60;3.60;;;;;;;23.21;44.96;95118.78;4991389;28;20065;-82
2023/08/19 06:25:49;;;;;;;7.55;3.45;;;;;;;23.33;44.38;95128.66;4976388;28;20065;-82
2023/08/19 06:28:19;;;;;;;5.40;3.30;;;;;;;23.46;44.22;95128.13;5008786;28;20033;-82
2023/08/19 06:30:45;;;;;;;4.18;3.47;;;;;;;23.52;43.59;95126.81;4991945;28;20030;-83
2023/08/19 06:33:12;;;;;;;7.50;3.35;;;;;;;23.57;43.88;95131.63;5009196;28;20014;-82
2023/08/19 06:35:37;;;;;;;7.05;3.38;;;;;;;23.64;44.04;95135.94;5008945;28;20030;-83
2023/08/19 06:38:06;;;;;;;4.90;3.70;;;;;;;23.74;43.71;95134.38;4992025;28;20022;-84
2023/08/19 06:40:35;;;;;;;8.15;4.15;;;;;;;23.87;43.32;95135.81;4991431;28;20033;-84
2023/08/19 06:43:04;;;;;;;3.47;3.00;;;;;;;23.96;43.18;95139.06;4993294;28;20346;-85
2023/08/19 06:45:29;;;;;;;5.88;3.58;;;;;;;24.02;43.11;95134.16;4992482;28;20034;-88
2023/08/19 06:47:57;;;;;;;7.93;3.70;;;;;;;24.13;43.23;95138.19;4992352;28;20088;-82
2023/08/19 06:50:23;;;;;;;9.27;3.70;;;;;;;24.16;43.34;95137.16;5010364;28;20018;-86
2023/08/19 06:52:49;;;;;;;5.88;3.20;;;;;;;24.26;42.89;95135.53;5009414;28;20513;-89
2023/08/19 06:55:15;;;;;;;7.88;3.70;;;;;;;24.39;42.02;95138.53;5008990;28;20034;-83
2023/08/19 06:57:47;;;;;;;5.88;2.95;;;;;;;24.42;42.00;95136.69;5008592;28;20498;-83
2023/08/19 07:00:13;;;;;;;5.85;3.00;;;;;;;24.53;41.87;95133.78;5001437;28;20041;-85
2023/08/19 07:02:39;;;;;;;5.75;3.17;;;;;;;24.56;41.49;95135.56;4988709;28;20054;-85
2023/08/19 07:05:15;;;;;;;5.43;3.47;;;;;;;24.54;41.66;95138.88;4992504;28;20093;-84
2023/08/19 07:07:46;;;;;;;4.78;3.03;;;;;;;24.71;41.42;95130.28;4989626;28;20038;-80
2023/08/19 07:10:17;;;;;;;3.40;2.75;;;;;;;24.82;41.33;95135.03;4987587;28;20068;-80
2023/08/19 07:12:43;;;;;;;3.85;2.80;;;;;;;24.93;39.67;95129.31;4990422;28;20065;-90
2023/08/19 07:15:12;;;;;;;4.60;2.95;;;;;;;24.97;38.90;95129.03;4996270;28;20145;-92
2023/08/19 07:17:41;;;;;;;7.22;3.30;;;;;;;24.94;39.34;95118.81;4995757;28;20516;-90
2023/08/19 07:20:09;;;;;;;4.97;3.05;;;;;;;25.09;39.61;95131.22;4989176;28;20033;-88
2023/08/19 07:22:36;;;;;;;6.60;3.67;;;;;;;25.17;39.26;95114.50;4989960;28;20030;-92
2023/08/19 07:25:03;;;;;;;4.53;2.92;;;;;;;25.23;38.36;95123.63;4989705;28;20027;-90
2023/08/19 07:27:29;;;;;;;4.97;3.10;;;;;;;25.34;38.62;95122.72;4989176;28;20033;-90
2023/08/19 07:29:55;;;;;;;10.25;2.90;;;;;;;25.46;37.93;95117.72;4991722;28;20046;-89
2023/08/19 07:32:21;;;;;;;5.13;2.88;;;;;;;25.55;37.20;95117.34;5004307;28;20086;-88
2023/08/19 07:34:47;;;;;;;4.45;2.50;;;;;;;25.71;36.40;95101.53;5001385;28;20464;-89
2023/08/19 07:37:12;;;;;;;6.07;3.15;;;;;;;25.86;35.97;95122.34;4990762;28;20072;-86
2023/08/19 07:39:38;;;;;;;4.18;2.90;;;;;;;25.91;34.18;95120.72;4988809;28;20022;-87
2023/08/19 07:42:04;;;;;;;6.47;3.10;;;;;;;25.96;34.98;95125.50;4988818;28;20030;-88
2023/08/19 07:44:29;;;;;;;3.10;2.72;;;;;;;26.08;34.69;95117.63;4987668;28;20105;-86
2023/08/19 07:46:55;;;;;;;6.13;2.83;;;;;;;25.99;33.36;95130.06;4989112;28;20026;-90
2023/08/19 07:49:20;;;;;;;3.50;2.90;;;;;;;25.93;33.61;95130.16;4990143;28;20034;-89
2023/08/19 07:51:46;;;;;;;3.30;2.55;;;;;;;26.02;33.74;95128.25;4989206;28;20580;-94
2023/08/19 07:54:11;;;;;;;4.32;3.65;;;;;;;26.11;34.44;95133.50;4992694;28;20034;-94
2023/08/19 07:56:37;;;;;;;3.63;2.42;;;;;;;26.24;33.53;95127.13;5005178;28;20026;-96
2023/08/19 07:59:03;;;;;;;5.35;2.50;;;;;;;26.34;33.75;95126.19;5005393;28;20122;-95
2023/08/19 08:01:28;;;;;;;3.63;2.55;;;;;;;26.54;33.90;95121.28;4997929;28;20038;-93
2023/08/19 08:03:54;;;;;;;3.58;2.25;;;;;;;26.58;33.08;95130.94;5008189;28;20045;-90
2023/08/19 08:06:19;;;;;;;4.15;2.53;;;;;;;26.67;32.49;95124.16;4990939;28;20405;-91
2023/08/19 08:08:45;;;;;;;3.25;2.33;;;;;;;26.73;32.43;95124.81;5007442;28;20044;-91
2023/08/19 08:11:10;;;;;;;6.90;2.85;;;;;;;26.76;33.11;95123.72;5012398;28;20034;-90
2023/08/19 08:13:35;;;;;;;4.93;2.55;;;;;;;26.96;33.63;95131.56;5012686;28;20048;-91
2023/08/19 08:16:01;;;;;;;2.25;1.90;;;;;;;27.02;32.55;95125.81;5009429;28;20033;-89
2023/08/19 08:18:27;;;;;;;4.65;2.63;;;;;;;27.06;33.30;95120.63;5032566;28;20061;-89
2023/08/19 08:20:53;;;;;;;5.13;3.00;;;;;;;27.21;33.55;95120.84;5015541;28;20022;-94
2023/08/19 08:23:18;;;;;;;3.15;2.50;;;;;;;27.37;32.64;95129.53;5032255;28;20044;-89
2023/08/19 08:25:44;;;;;;;7.28;2.97;;;;;;;27.54;32.53;95132.75;5020185;28;20095;-92
2023/08/19 08:28:10;;;;;;;4.20;2.47;;;;;;;27.69;31.83;95127.31;5011750;28;20038;-92
2023/08/19 08:30:36;;;;;;;4.65;2.30;;;;;;;27.72;32.02;95123.41;5010208;28;20041;-93
2023/08/19 08:33:01;;;;;;;5.07;2.45;;;;;;;27.83;32.44;95121.66;5011019;28;20092;-93
2023/08/19 08:35:27;;;;;;;4.95;3.20;;;;;;;28.04;32.51;95125.25;5009894;28;20029;-92
2023/08/19 08:37:52;;;;;;;6.55;3.17;;;;;;;28.16;32.67;95120.09;5011120;28;20048;-93
2023/08/19 08:40:18;;;;;;;3.28;2.60;;;;;;;28.31;32.77;95115.34;5005405;28;20033;-91
2023/08/19 08:42:44;;;;;;;4.35;2.70;;;;;;;28.48;32.19;95122.72;4992888;28;20434;-92
2023/08/19 08:45:10;;;;;;;5.60;2.40;;;;;;;28.62;32.37;95118.50;4996641;28;20103;-92
2023/08/19 08:47:38;;;;;;;3.75;2.60;;;;;;;28.78;32.20;95117.28;5014048;28;20053;-94
2023/08/19 08:50:03;;;;;;;6.05;3.13;;;;;;;28.95;32.14;95113.28;5010444;28;20092;-91
2023/08/19 08:52:29;;;;;;;5.13;3.20;;;;;;;29.18;31.87;95125.53;5013025;28;20029;-91
2023/08/19 08:54:54;;;;;;;3.42;2.42;;;;;;;29.36;30.90;95118.84;5010043;28;20568;-93
2023/08/19 08:57:20;;;;;;;5.90;2.40;;;;;;;29.50;30.76;95119.47;5001651;28;20087;-91
2023/08/19 08:59:46;;;;;;;4.47;2.05;;;;;;;29.65;29.36;95123.72;5008736;28;20030;-93
2023/08/19 09:02:14;;;;;;;3.70;2.35;;;;;;;29.78;29.40;95115.84;5009020;28;20041;-91
2023/08/19 09:04:43;;;;;;;3.97;2.55;;;;;;;29.98;29.94;95125.53;5006685;28;20140;-90
2023/08/19 09:07:10;;;;;;;5.03;2.47;;;;;;;30.23;29.74;95119.41;4989673;28;20087;-90
2023/08/19 09:09:37;;;;;;;3.40;2.40;;;;;;;30.42;29.34;95119.81;4989161;28;20523;-93
2023/08/19 09:12:04;;;;;;;4.03;2.40;;;;;;;30.64;29.12;95118.31;4989460;28;20041;-89
2023/08/19 09:14:39;;;;;;;4.25;2.17;;;;;;;30.77;28.62;95115.31;4989938;28;20468;-90
2023/08/19 09:17:04;;;;;;;4.63;2.05;;;;;;;30.94;28.73;95103.38;4989459;28;20061;-91
2023/08/19 09:19:30;;;;;;;4.22;2.42;;;;;;;31.11;28.51;95102.78;5007678;28;20053;-93
2023/08/19 09:21:55;;;;;;;4.32;2.92;;;;;;;31.40;27.82;95103.31;4988834;28;20034;-93
2023/08/19 09:24:21;;;;;;;4.63;3.13;;;;;;;31.66;28.02;95102.13;4989483;28;20486;-91
2023/08/19 09:26:47;;;;;;;5.60;2.67;;;;;;;31.91;26.91;95100.13;5006442;28;20037;-91
2023/08/19 09:29:13;;;;;;;5.65;1.88;;;;;;;32.09;25.17;95100.97;4978844;28;20104;-91
2023/08/19 09:31:39;;;;;;;4.03;2.00;;;;;;;32.18;24.32;95099.59;5006713;28;20496;-90
2023/08/19 09:34:05;;;;;;;4.00;1.90;;;;;;;32.03;24.79;95094.00;5020122;28;20037;-92
2023/08/19 09:36:31;;;;;;;5.05;2.05;;;;;;;32.00;24.94;95093.03;5014934;28;20056;-91
2023/08/19 09:38:57;;;;;;;6.55;2.55;;;;;;;32.04;25.84;95090.56;4991308;28;20163;-89
2023/08/19 09:41:29;;;;;;;8.25;3.10;;;;;;;32.25;25.78;95088.19;5014734;28;20037;-92
2023/08/19 09:43:55;;;;;;;3.30;2.03;;;;;;;32.33;24.08;95093.81;4980657;28;20049;-90
2023/08/19 09:46:32;;;;;;;3.25;2.03;;;;;;;32.54;24.66;95089.91;4998791;28;20096;-91
2023/08/19 09:48:58;;;;;;;2.78;2.10;;;;;;;32.73;24.42;95095.81;4993400;28;20061;-91
2023/08/19 09:51:24;;;;;;;5.47;1.90;;;;;;;32.75;23.76;95081.78;5007865;28;20537;-90
2023/08/19 09:53:50;;;;;;;4.60;2.10;;;;;;;32.54;23.09;95089.91;4989956;28;20488;-89
2023/08/19 09:56:20;;;;;;;5.43;2.00;;;;;;;32.44;24.08;95084.84;4989340;28;20033;-90
2023/08/19 09:58:48;;;;;;;3.05;2.70;;;;;;;32.73;24.38;95090.88;4989535;28;20089;-90
2023/08/19 10:01:14;;;;;;;3.95;2.25;;;;;;;32.92;24.99;95090.38;5006501;28;20022;-92
2023/08/19 10:03:39;;;;;;;4.22;1.80;;;;;;;33.09;24.27;95097.41;4989111;28;20100;-89
2023/08/19 10:06:05;;;;;;;3.28;2.00;;;;;;;33.17;24.46;95096.00;4990872;28;20545;-90
2023/08/19 10:08:32;;;;;;;3.88;2.10;;;;;;;33.08;23.99;95090.22;4991543;28;20038;-90
2023/08/19 10:10:59;;;;;;;4.90;1.92;;;;;;;33.06;23.29;95087.19;4973298;28;20030;-91
2023/08/19 10:13:26;;;;;;;3.88;2.05;;;;;;;33.08;22.69;95082.41;5006525;28;20084;-93
2023/08/19 10:15:56;;;;;;;5.28;2.20;;;;;;;33.11;23.00;95098.34;4989605;28;20033;-91
2023/08/19 10:18:25;;;;;;;3.90;2.17;;;;;;;33.14;22.90;95087.88;5013443;28;20030;-91
2023/08/19 10:20:54;;;;;;;5.75;2.40;;;;;;;33.25;23.75;95084.53;4997861;28;20037;-91
2023/08/19 10:23:20;;;;;;;3.90;2.60;;;;;;;33.36;23.43;95080.44;4990512;28;20022;-91
2023/08/19 10:25:45;;;;;;;3.20;2.03;;;;;;;33.02;23.18;95088.34;4989064;28;20112;-90
2023/08/19 10:28:13;;;;;;;3.33;1.95;;;;;;;32.95;22.36;95086.34;4988997;28;20032;-93
2023/08/19 10:30:39;;;;;;;6.13;2.20;;;;;;;33.02;23.35;95076.22;4973344;28;20396;-90
2023/08/19 10:33:30;;;;;;;4.78;2.20;;;;;;;33.02;23.18;95088.34;4990489;28;20021;-91
2023/08/19 10:35:57;;;;;;;4.65;1.98;;;;;;;33.17;22.08;95081.78;4999606;28;20022;-91
2023/08/19 10:38:23;;;;;;;6.57;2.08;;;;;;;33.23;22.32;95085.13;4990578;28;20034;-91
2023/08/19 10:41:01;;;;;;;3.08;2.10;;;;;;;33.02;21.95;95071.28;5005846;28;20022;-92
2023/08/19 10:43:26;;;;;;;3.17;2.15;;;;;;;32.90;21.56;95075.94;4988664;28;20041;-92
2023/08/19 10:45:57;;;;;;;3.70;1.73;;;;;;;32.91;21.68;95068.16;4988783;28;20038;-90
2023/08/19 10:48:32;;;;;;;4.82;1.73;;;;;;;32.75;21.54;95073.22;5005719;28;20026;-90
2023/08/19 10:50:57;;;;;;;2.58;1.90;;;;;;;33.13;22.01;95072.88;5006015;28;20500;-89
2023/08/19 10:53:24;;;;;;;4.57;1.70;;;;;;;33.43;21.82;95077.50;5005993;28;20026;-89
2023/08/19 10:55:55;;;;;;;4.60;1.80;;;;;;;33.55;21.37;95069.25;5006184;28;20030;-90
2023/08/19 10:58:22;;;;;;;4.25;1.73;;;;;;;33.55;21.36;95078.53;5008514;28;20026;-91
2023/08/19 11:00:49;;;;;;;5.57;1.73;;;;;;;33.50;21.28;95085.25;5009189;28;20034;-91
2023/08/19 11:03:17;;;;;;;2.47;1.80;;;;;;;33.86;20.70;95086.69;4991387;28;20046;-91
2023/08/19 11:05:50;;;;;;;2.45;1.77;;;;;;;33.88;20.85;95081.16;5008836;28;20037;-90
2023/08/19 11:08:15;;;;;;;5.13;2.00;;;;;;;34.19;21.52;95089.34;5009303;28;20040;-92
2023/08/19 11:10:44;;;;;;;4.25;1.85;;;;;;;34.47;21.63;95085.91;5008980;28;20417;-89
2023/08/19 11:13:10;;;;;;;3.42;1.90;;;;;;;34.77;21.31;95076.09;4992234;28;20034;-89
2023/08/19 11:15:36;;;;;;;5.03;2.05;;;;;;;34.80;20.21;95082.69;5008600;28;20523;-88
2023/08/19 11:18:02;;;;;;;3.00;1.80;;;;;;;34.35;20.33;95093.44;5009479;28;20044;-88
2023/08/19 11:20:30;;;;;;;5.20;2.00;;;;;;;34.20;21.06;95080.19;5008700;28;20520;-88
2023/08/19 11:22:56;;;;;;;2.42;1.70;;;;;;;34.33;20.85;95076.94;4991998;28;20483;-87
2023/08/19 11:25:21;;;;;;;3.13;2.13;;;;;;;34.27;21.31;95073.59;5008852;28;20064;-88
2023/08/19 11:27:47;;;;;;;4.57;1.90;;;;;;;34.76;20.01;95079.56;5008692;28;20030;-88
2023/08/19 11:30:18;;;;;;;3.53;1.73;;;;;;;34.55;20.59;95077.97;4994727;28;20025;-88